createdAt,value
2023-05-22T00:05:23.098Z,49.04
2023-05-22T00:10:47.350Z,49.07
2023-05-22T00:16:39.285Z,48.91
2023-05-22T00:22:07.116Z,48.90
2023-05-22T00:27:46.683Z,48.98
2023-05-22T00:33:08.604Z,48.97
2023-05-22T00:40:13.857Z,48.97
2023-05-22T00:43:47.538Z,49.00
2023-05-22T00:49:06.639Z,48.73
2023-05-22T00:55:24.611Z,48.45
2023-05-22T00:59:47.733Z,46.97
2023-05-22T01:04:52.240Z,48.29
2023-05-22T01:10:09.463Z,48.50
2023-05-22T01:15:53.976Z,48.47
2023-05-22T01:21:11.108Z,48.38
2023-05-22T01:26:33.569Z,48.49
2023-05-22T01:32:14.027Z,47.76
2023-05-22T01:37:27.062Z,48.02
2023-05-22T01:43:00.656Z,48.18
2023-05-22T01:54:05.479Z,47.99
2023-05-22T01:58:57.289Z,48.06
2023-05-22T02:04:04.843Z,48.20
2023-05-22T02:09:16.828Z,48.03
2023-05-22T02:14:24.434Z,48.01
2023-05-22T02:19:44.117Z,47.99
2023-05-22T02:24:51.660Z,48.10
2023-05-22T02:30:19.664Z,48.12
2023-05-22T02:36:06.392Z,48.04
2023-05-22T02:41:19.060Z,47.93
2023-05-22T02:46:38.788Z,47.50
2023-05-22T02:51:56.513Z,47.48
2023-05-22T02:57:42.571Z,47.65
2023-05-22T03:02:52.152Z,47.98
2023-05-22T03:08:31.847Z,47.70
2023-05-22T03:13:51.784Z,47.78
2023-05-22T03:19:31.287Z,48.03
2023-05-22T03:25:11.660Z,48.10
2023-05-22T03:30:40.594Z,48.09
2023-05-22T03:35:53.643Z,47.93
2023-05-22T03:41:06.061Z,47.80
2023-05-22T03:46:13.611Z,47.72
2023-05-22T03:51:25.786Z,47.63
2023-05-22T03:56:50.209Z,47.54
2023-05-22T04:02:05.210Z,47.52
2023-05-22T04:07:21.253Z,47.49
2023-05-22T04:13:12.308Z,47.45
2023-05-22T04:19:21.541Z,47.32
2023-05-22T04:24:25.056Z,47.36
2023-05-22T04:30:46.875Z,47.42
2023-05-22T04:35:17.526Z,47.26
2023-05-22T04:40:28.781Z,47.34
2023-05-22T04:46:05.270Z,47.40
2023-05-22T04:51:31.440Z,47.38
2023-05-22T04:56:36.738Z,47.43
2023-05-22T05:01:53.904Z,47.25
2023-05-22T05:07:05.329Z,47.26
2023-05-22T05:13:02.735Z,46.99
2023-05-22T05:18:16.522Z,47.07
2023-05-22T05:23:45.574Z,47.13
2023-05-22T05:28:55.314Z,47.06
2023-05-22T05:34:59.781Z,47.13
2023-05-22T05:39:24.236Z,47.09
2023-05-22T05:44:34.232Z,47.17
2023-05-22T05:49:40.727Z,47.14
2023-05-22T05:54:57.584Z,47.16
2023-05-22T06:00:19.896Z,47.26
2023-05-22T06:05:45.820Z,46.99
2023-05-22T06:11:00.437Z,47.17
2023-05-22T06:16:19.758Z,47.17
2023-05-22T06:21:30.735Z,47.18
2023-05-22T06:26:32.030Z,46.94
2023-05-22T06:31:39.997Z,46.85
2023-05-22T06:36:47.482Z,46.91
2023-05-22T06:41:55.384Z,46.99
2023-05-22T06:47:09.263Z,47.13
2023-05-22T06:52:27.007Z,47.23
2023-05-22T06:58:22.050Z,47.30
2023-05-22T07:03:53.400Z,47.30
2023-05-22T07:09:01.463Z,47.36
2023-05-22T07:14:15.736Z,47.41
2023-05-22T07:19:35.252Z,47.37
2023-05-22T07:24:43.944Z,47.36
2023-05-22T07:29:50.225Z,47.46
2023-05-22T07:34:57.708Z,47.49
2023-05-22T07:40:10.820Z,47.61
2023-05-22T07:45:20.176Z,47.58
2023-05-22T07:50:34.574Z,47.74
2023-05-22T07:55:47.570Z,47.36
2023-05-22T08:00:50.210Z,47.52
2023-05-22T08:06:02.211Z,47.83
2023-05-22T08:11:36.984Z,47.58
2023-05-22T08:16:38.793Z,47.47
2023-05-22T08:21:47.347Z,47.65
2023-05-22T08:26:55.133Z,47.64
2023-05-22T08:32:55.024Z,47.48
2023-05-22T08:37:43.996Z,47.38
2023-05-22T08:42:31.309Z,47.56
2023-05-22T08:47:45.317Z,47.59
2023-05-22T08:52:50.878Z,47.44
2023-05-22T08:58:35.757Z,47.79
2023-05-22T09:04:22.004Z,46.34
2023-05-22T09:09:40.954Z,47.34
2023-05-22T09:15:28.835Z,47.63
2023-05-22T09:20:36.413Z,47.65
2023-05-22T09:25:50.281Z,47.63
2023-05-22T09:31:33.836Z,48.00
2023-05-22T09:36:39.659Z,47.97
2023-05-22T09:42:51.750Z,47.97
2023-05-22T09:47:11.573Z,48.07
2023-05-22T09:53:05.746Z,48.28
2023-05-22T09:58:36.376Z,48.21
2023-05-22T10:04:59.738Z,48.27
2023-05-22T10:09:28.436Z,48.40
2023-05-22T10:15:18.515Z,48.52
2023-05-22T10:19:59.796Z,48.53
2023-05-22T10:25:10.766Z,48.54
2023-05-22T10:30:31.587Z,48.56
2023-05-22T10:35:47.151Z,48.59
2023-05-22T10:41:35.756Z,48.68
2023-05-22T10:47:23.392Z,48.76
2023-05-22T10:53:06.208Z,48.82
2023-05-22T10:58:33.860Z,48.83
2023-05-22T11:03:56.504Z,48.95
2023-05-22T11:09:18.151Z,48.93
2023-05-22T11:14:48.269Z,48.94
2023-05-22T11:19:59.621Z,48.94
2023-05-22T11:25:06.997Z,48.92
2023-05-22T11:30:42.889Z,48.92
2023-05-22T11:36:21.984Z,48.88
2023-05-22T11:41:42.568Z,48.87
2023-05-22T11:47:24.783Z,48.91
2023-05-22T11:52:48.875Z,48.99
2023-05-22T11:57:51.080Z,48.97
2023-05-22T12:03:01.877Z,48.99
2023-05-22T12:08:09.396Z,49.02
2023-05-22T12:18:11.823Z,49.06
2023-05-22T12:18:46.567Z,49.16
2023-05-22T12:24:04.969Z,49.20
2023-05-22T12:29:20.738Z,49.24
2023-05-22T12:35:33.793Z,49.34
2023-05-22T12:40:10.530Z,49.42
2023-05-22T12:45:53.075Z,49.46
2023-05-22T12:51:51.013Z,49.49
2023-05-22T12:57:33.709Z,49.50
2023-05-22T13:02:50.527Z,49.51
2023-05-22T13:08:34.465Z,49.46
2023-05-22T13:14:19.304Z,49.43
2023-05-22T13:20:01.783Z,49.40
2023-05-22T13:25:27.823Z,49.29
2023-05-22T13:37:23.917Z,49.29
2023-05-22T13:42:08.362Z,49.25
2023-05-22T13:47:50.976Z,49.28
2023-05-22T13:59:01.264Z,49.28
2023-05-22T14:04:23.692Z,49.28
2023-05-22T14:10:04.990Z,49.22
2023-05-22T14:15:32.025Z,49.11
2023-05-22T14:21:19.094Z,49.04
2023-05-22T14:32:25.913Z,48.95
2023-05-22T14:38:08.881Z,48.87
2023-05-22T14:43:32.482Z,48.89
2023-05-22T14:49:26.359Z,48.88
2023-05-22T14:54:26.256Z,48.89
2023-05-22T15:05:07.513Z,48.90
2023-05-22T15:24:02.496Z,48.84
2023-05-22T15:30:26.581Z,48.71
2023-05-22T15:42:19.779Z,48.75
2023-05-22T15:47:36.859Z,48.67
2023-05-22T15:53:24.303Z,48.60
2023-05-22T16:03:54.063Z,48.39
2023-05-22T16:11:40.612Z,48.27
2023-05-22T16:21:12.025Z,48.13
2023-05-22T16:26:58.140Z,48.03
2023-05-22T16:32:14.012Z,48.00
2023-05-22T16:51:06.064Z,47.90
2023-05-22T17:13:15.144Z,47.79
2023-05-22T17:18:26.385Z,47.78
2023-05-22T17:33:06.838Z,47.78
2023-05-22T18:14:46.200Z,47.64
2023-05-22T18:22:27.202Z,47.59
2023-05-22T18:47:19.862Z,47.52
2023-05-22T18:53:11.849Z,47.56
2023-05-22T19:15:58.858Z,47.71
2023-05-22T19:40:17.584Z,47.91
2023-05-22T19:49:06.943Z,47.59
2023-05-22T20:02:48.833Z,47.71
2023-05-22T20:09:04.377Z,47.79
2023-05-22T20:18:59.570Z,47.13
2023-05-22T20:24:24.216Z,46.43
2023-05-22T20:30:13.911Z,46.56
2023-05-22T20:35:37.345Z,46.11
2023-05-22T20:40:49.520Z,45.86
2023-05-22T20:51:30.815Z,45.69
2023-05-22T20:57:35.549Z,45.77
2023-05-22T21:07:08.614Z,45.73
2023-05-22T21:11:50.491Z,45.49
2023-05-22T21:12:21.132Z,45.79
2023-05-22T21:17:37.956Z,45.96
2023-05-22T21:23:00.448Z,46.16
2023-05-22T21:28:34.750Z,46.26
2023-05-22T21:34:10.479Z,46.08
2023-05-22T21:39:35.261Z,45.56
2023-05-22T21:44:33.433Z,45.82
2023-05-22T21:49:43.507Z,46.06
2023-05-22T21:54:56.467Z,46.46
2023-05-22T22:00:05.029Z,46.38
2023-05-22T22:11:17.545Z,46.52
2023-05-22T22:17:07.198Z,46.20
2023-05-22T22:22:41.342Z,46.19
2023-05-22T22:28:20.396Z,46.00
2023-05-22T22:34:13.237Z,46.02
2023-05-22T22:38:59.195Z,45.85
2023-05-22T22:44:15.142Z,45.80
2023-05-22T22:54:55.830Z,46.23
2023-05-22T23:00:03.890Z,46.23
2023-05-22T23:05:16.052Z,46.27
2023-05-22T23:10:34.622Z,46.37
2023-05-22T23:15:50.873Z,46.38
2023-05-22T23:21:19.654Z,46.38
2023-05-22T23:28:55.529Z,46.46
2023-05-22T23:32:15.112Z,46.42
2023-05-22T23:38:04.132Z,46.44
2023-05-22T23:43:20.772Z,46.60
2023-05-22T23:51:21.500Z,46.68
2023-05-22T23:54:22.630Z,46.88
